createdAt,value
2022-09-27T00:03:25.740Z,15.65
2022-09-27T00:07:30.276Z,15.67
2022-09-27T00:11:36.132Z,15.66
2022-09-27T00:15:39.777Z,15.65
2022-09-27T00:19:43.150Z,15.64
2022-09-27T00:23:47.667Z,15.63
2022-09-27T00:27:51.084Z,15.62
2022-09-27T00:31:54.861Z,15.58
2022-09-27T00:36:05.496Z,15.57
2022-09-27T00:40:13.171Z,15.52
2022-09-27T00:45:03.862Z,15.48
2022-09-27T00:49:14.667Z,15.41
2022-09-27T00:53:23.322Z,15.36
2022-09-27T00:57:28.299Z,15.30
2022-09-27T01:01:31.787Z,15.21
2022-09-27T01:05:35.875Z,15.16
2022-09-27T01:09:39.478Z,15.09
2022-09-27T01:13:54.073Z,15.06
2022-09-27T01:18:11.095Z,15.03
2022-09-27T01:22:18.392Z,15.01
2022-09-27T01:26:36.856Z,14.95
2022-09-27T01:30:47.117Z,14.88
2022-09-27T01:34:58.959Z,14.84
2022-09-27T01:39:17.327Z,14.80
2022-09-27T01:44:06.330Z,14.75
2022-09-27T01:48:22.399Z,14.66
2022-09-27T01:52:33.133Z,14.61
2022-09-27T01:56:41.772Z,14.56
2022-09-27T02:00:53.876Z,14.52
2022-09-27T02:05:03.555Z,14.48
2022-09-27T02:09:11.930Z,14.45
2022-09-27T02:13:37.453Z,14.40
2022-09-27T02:18:07.150Z,14.37
2022-09-27T02:22:19.124Z,14.36
2022-09-27T02:26:26.269Z,14.34
2022-09-27T02:30:30.326Z,14.31
2022-09-27T02:34:46.108Z,14.31
2022-09-27T02:38:51.297Z,14.29
2022-09-27T02:42:58.128Z,14.27
2022-09-27T02:47:14.484Z,14.25
2022-09-27T02:51:28.422Z,14.23
2022-09-27T02:55:44.407Z,14.20
2022-09-27T03:00:11.984Z,14.12
2022-09-27T03:04:40.628Z,14.04
2022-09-27T03:08:45.260Z,13.99
2022-09-27T03:12:50.480Z,13.98
2022-09-27T03:16:53.769Z,13.96
2022-09-27T03:21:32.773Z,13.94
2022-09-27T03:25:36.241Z,13.92
2022-09-27T03:29:41.403Z,13.91
2022-09-27T03:33:45.795Z,13.97
2022-09-27T03:37:49.354Z,13.99
2022-09-27T03:41:53.180Z,13.99
2022-09-27T03:45:58.282Z,13.97
2022-09-27T03:50:01.704Z,13.97
2022-09-27T03:54:05.061Z,13.97
2022-09-27T03:58:08.263Z,14.01
2022-09-27T04:02:13.019Z,14.02
2022-09-27T04:06:39.219Z,14.04
2022-09-27T04:10:43.257Z,14.05
2022-09-27T04:14:46.468Z,14.06
2022-09-27T04:19:13.912Z,14.10
2022-09-27T04:23:28.997Z,14.11
2022-09-27T04:27:33.567Z,14.09
2022-09-27T04:31:37.948Z,14.09
2022-09-27T04:36:12.444Z,14.08
2022-09-27T04:40:20.263Z,14.08
2022-09-27T04:44:23.669Z,14.07
2022-09-27T04:48:27.146Z,14.09
2022-09-27T04:52:32.327Z,14.10
2022-09-27T04:56:35.507Z,14.10
2022-09-27T05:00:42.908Z,14.11
2022-09-27T05:05:18.272Z,14.12
2022-09-27T05:09:23.140Z,14.13
2022-09-27T05:13:29.353Z,14.12
2022-09-27T05:17:32.551Z,14.09
2022-09-27T05:22:07.761Z,14.04
2022-09-27T05:26:13.022Z,14.01
2022-09-27T05:30:16.944Z,14.04
2022-09-27T05:34:26.487Z,14.09
2022-09-27T05:38:37.051Z,14.12
2022-09-27T05:42:42.955Z,14.15
2022-09-27T05:46:46.672Z,14.21
2022-09-27T05:50:50.097Z,14.26
2022-09-27T05:54:53.329Z,14.30
2022-09-27T05:58:58.906Z,14.36
2022-09-27T06:03:07.952Z,14.39
2022-09-27T06:07:34.743Z,14.44
2022-09-27T06:11:44.425Z,14.47
2022-09-27T06:15:53.894Z,14.51
2022-09-27T06:19:57.656Z,14.54
2022-09-27T06:24:01.197Z,14.57
2022-09-27T06:28:09.415Z,14.61
2022-09-27T06:32:16.428Z,14.64
2022-09-27T06:36:33.817Z,14.68
2022-09-27T06:40:38.889Z,14.69
2022-09-27T06:45:06.226Z,14.71
2022-09-27T06:49:30.987Z,14.73
2022-09-27T06:53:34.346Z,14.76
2022-09-27T06:57:54.635Z,14.77
2022-09-27T07:01:57.952Z,14.81
2022-09-27T07:06:24.182Z,14.87
2022-09-27T07:10:45.552Z,14.92
2022-09-27T07:14:49.897Z,14.97
2022-09-27T07:18:54.490Z,15.01
2022-09-27T07:22:59.958Z,15.06
2022-09-27T07:27:03.126Z,15.07
2022-09-27T07:31:09.119Z,15.06
2022-09-27T07:35:15.208Z,15.06
2022-09-27T07:39:22.129Z,15.08
2022-09-27T07:43:25.728Z,15.10
2022-09-27T07:47:29.373Z,15.11
2022-09-27T07:51:44.799Z,15.12
2022-09-27T07:56:08.537Z,15.12
2022-09-27T08:00:15.396Z,15.15
2022-09-27T08:04:20.255Z,15.16
2022-09-27T08:08:23.874Z,15.16
2022-09-27T08:12:30.607Z,15.17
2022-09-27T08:16:34.809Z,15.17
2022-09-27T08:20:52.221Z,15.18
2022-09-27T08:25:11.258Z,15.18
2022-09-27T08:29:42.021Z,15.14
2022-09-27T08:33:45.442Z,15.07
2022-09-27T08:37:54.792Z,14.97
2022-09-27T08:42:07.253Z,14.86
2022-09-27T08:46:28.819Z,14.78
2022-09-27T08:50:39.740Z,14.71
2022-09-27T08:54:48.262Z,14.64
2022-09-27T08:58:58.972Z,14.61
2022-09-27T09:03:18.377Z,14.58
2022-09-27T09:07:38.538Z,14.56
2022-09-27T09:12:08.731Z,14.51
2022-09-27T09:16:28.984Z,14.47
2022-09-27T09:20:51.908Z,14.49
2022-09-27T09:25:07.283Z,14.52
2022-09-27T09:29:24.787Z,14.53
2022-09-27T09:33:33.233Z,14.57
2022-09-27T09:37:42.492Z,14.56
2022-09-27T09:42:06.310Z,14.55
2022-09-27T09:46:14.709Z,14.52
2022-09-27T09:50:20.400Z,14.48
2022-09-27T09:54:31.623Z,14.42
2022-09-27T09:58:41.874Z,14.41
2022-09-27T10:02:50.533Z,14.41
2022-09-27T10:07:00.657Z,14.46
2022-09-27T10:11:21.105Z,14.56
2022-09-27T10:15:43.120Z,14.67
2022-09-27T10:19:49.709Z,14.80
2022-09-27T10:24:16.491Z,14.91
2022-09-27T10:28:51.082Z,15.03
2022-09-27T10:33:02.353Z,15.14
2022-09-27T10:37:18.799Z,15.19
2022-09-27T10:41:44.518Z,15.27
2022-09-27T10:46:16.681Z,15.40
2022-09-27T10:50:48.970Z,15.44
2022-09-27T10:55:02.967Z,15.52
2022-09-27T10:59:06.796Z,15.61
2022-09-27T11:03:17.356Z,15.62
2022-09-27T11:07:23.588Z,15.66
2022-09-27T11:11:45.315Z,15.71
2022-09-27T11:16:04.741Z,15.79
2022-09-27T11:20:36.008Z,15.85
2022-09-27T11:24:54.159Z,15.91
2022-09-27T11:29:09.908Z,15.92
2022-09-27T11:33:46.839Z,15.95
2022-09-27T11:38:01.367Z,15.92
2022-09-27T11:42:25.018Z,15.84
2022-09-27T11:46:40.365Z,15.87
2022-09-27T11:50:56.895Z,15.86
2022-09-27T11:55:16.767Z,15.84
2022-09-27T11:59:46.602Z,15.75
2022-09-27T12:04:11.757Z,15.67
2022-09-27T12:08:38.712Z,15.66
2022-09-27T12:12:45.745Z,15.62
2022-09-27T12:16:53.276Z,15.64
2022-09-27T12:21:00.962Z,15.68
2022-09-27T12:25:05.700Z,15.73
2022-09-27T12:29:23.827Z,15.80
2022-09-27T12:33:35.639Z,15.87
2022-09-27T12:37:44.837Z,15.90
2022-09-27T12:41:56.440Z,15.87
2022-09-27T12:46:22.788Z,15.89
2022-09-27T12:50:32.383Z,15.88
2022-09-27T12:55:04.379Z,15.85
2022-09-27T12:59:21.723Z,15.87
2022-09-27T13:03:56.304Z,15.88
2022-09-27T13:08:23.769Z,15.86
2022-09-27T13:12:29.389Z,15.85
2022-09-27T13:16:42.428Z,15.79
2022-09-27T13:20:49.332Z,15.79
2022-09-27T13:25:01.659Z,15.76
2022-09-27T13:29:34.716Z,15.74
2022-09-27T13:33:46.896Z,15.73
2022-09-27T13:37:59.493Z,15.77
2022-09-27T13:42:22.411Z,15.74
2022-09-27T13:46:29.161Z,15.67
2022-09-27T13:50:40.939Z,15.66
2022-09-27T13:54:55.213Z,15.64
2022-09-27T13:59:05.834Z,15.65
2022-09-27T14:03:49.488Z,15.68
2022-09-27T14:07:53.939Z,15.70
2022-09-27T14:12:01.195Z,15.72
2022-09-27T14:16:07.285Z,15.75
2022-09-27T14:20:35.604Z,15.76
2022-09-27T14:24:51.727Z,15.80
2022-09-27T14:29:01.911Z,15.81
2022-09-27T14:33:29.479Z,15.80
2022-09-27T14:37:36.403Z,15.82
2022-09-27T14:41:48.158Z,15.81
2022-09-27T14:45:54.895Z,15.72
2022-09-27T14:50:01.083Z,15.63
2022-09-27T14:54:05.698Z,15.55
2022-09-27T14:58:35.960Z,15.43
2022-09-27T15:02:42.630Z,15.38
2022-09-27T15:06:46.795Z,15.34
2022-09-27T15:10:50.143Z,15.32
2022-09-27T15:14:58.237Z,15.33
2022-09-27T15:19:03.891Z,15.34
2022-09-27T15:23:07.182Z,15.33
2022-09-27T15:27:18.566Z,15.28
2022-09-27T15:31:30.787Z,15.20
2022-09-27T15:35:36.945Z,15.20
2022-09-27T15:39:42.166Z,15.16
2022-09-27T15:43:47.149Z,15.14
2022-09-27T15:47:51.427Z,15.15
2022-09-27T15:51:58.031Z,15.15
2022-09-27T15:56:02.198Z,15.13
2022-09-27T16:00:06.025Z,15.15
2022-09-27T16:04:15.095Z,15.14
2022-09-27T16:08:19.467Z,15.10
2022-09-27T16:12:22.623Z,15.08
2022-09-27T16:16:25.809Z,15.02
2022-09-27T16:20:29.466Z,14.96
2022-09-27T16:24:34.147Z,14.95
2022-09-27T16:28:37.433Z,14.91
2022-09-27T16:32:42.456Z,14.89
2022-09-27T16:36:45.470Z,14.86
2022-09-27T16:40:49.895Z,14.84
2022-09-27T16:44:53.906Z,14.81
2022-09-27T16:48:57.294Z,14.81
2022-09-27T16:53:00.381Z,14.79
2022-09-27T16:57:05.223Z,14.73
2022-09-27T17:01:08.487Z,14.70
2022-09-27T17:05:12.106Z,14.68
2022-09-27T17:09:15.066Z,14.65
2022-09-27T17:13:19.803Z,14.63
2022-09-27T17:17:22.800Z,14.62
2022-09-27T17:21:25.968Z,14.56
2022-09-27T17:25:29.006Z,14.52
2022-09-27T17:29:33.539Z,14.45
2022-09-27T17:33:43.454Z,14.43
2022-09-27T17:37:46.793Z,14.38
2022-09-27T17:41:49.987Z,14.34
2022-09-27T17:45:54.311Z,14.35
2022-09-27T17:50:14.775Z,14.31
2022-09-27T17:54:19.710Z,14.28
2022-09-27T17:58:22.895Z,14.24
2022-09-27T18:02:28.185Z,14.23
2022-09-27T18:06:31.527Z,14.21
2022-09-27T18:10:35.505Z,14.17
2022-09-27T18:14:38.375Z,14.15
2022-09-27T18:18:44.831Z,14.12
2022-09-27T18:22:47.687Z,14.12
2022-09-27T18:26:50.690Z,14.08
2022-09-27T18:30:53.637Z,14.05
2022-09-27T18:34:58.043Z,14.01
2022-09-27T18:39:02.426Z,14.00
2022-09-27T18:43:05.970Z,13.99
2022-09-27T18:47:09.213Z,13.95
2022-09-27T18:51:16.126Z,13.94
2022-09-27T18:55:22.146Z,13.93
2022-09-27T18:59:28.967Z,13.91
2022-09-27T19:03:32.408Z,13.91
2022-09-27T19:07:38.724Z,13.91
2022-09-27T19:11:42.183Z,13.90
2022-09-27T19:15:54.719Z,13.93
2022-09-27T19:20:11.997Z,13.90
2022-09-27T19:24:16.713Z,13.88
2022-09-27T19:28:20.719Z,13.88
2022-09-27T19:32:23.599Z,13.83
2022-09-27T19:36:28.979Z,13.78
2022-09-27T19:40:33.397Z,13.76
2022-09-27T19:44:36.323Z,13.75
2022-09-27T19:48:39.916Z,13.77
2022-09-27T19:52:43.158Z,13.80
2022-09-27T19:56:49.293Z,13.77
2022-09-27T20:00:59.586Z,13.74
2022-09-27T20:05:02.566Z,13.70
2022-09-27T20:09:05.715Z,13.68
2022-09-27T20:13:10.493Z,13.66
2022-09-27T20:17:13.593Z,13.61
2022-09-27T20:21:18.053Z,13.52
2022-09-27T20:25:21.015Z,13.44
2022-09-27T20:29:25.221Z,13.39
2022-09-27T20:33:46.551Z,13.33
2022-09-27T20:37:49.446Z,13.24
2022-09-27T20:41:52.533Z,13.19
2022-09-27T20:46:03.191Z,13.16
2022-09-27T20:50:07.164Z,13.09
2022-09-27T20:54:12.413Z,13.05
2022-09-27T20:58:15.334Z,13.03
2022-09-27T21:02:20.118Z,13.00
2022-09-27T21:06:23.981Z,12.91
2022-09-27T21:10:27.050Z,12.82
2022-09-27T21:14:29.906Z,12.69
2022-09-27T21:18:34.710Z,12.61
2022-09-27T21:22:37.753Z,12.56
2022-09-27T21:26:40.615Z,12.53
2022-09-27T21:30:43.831Z,12.53
2022-09-27T21:34:48.309Z,12.53
2022-09-27T21:38:51.755Z,12.53
2022-09-27T21:42:57.789Z,12.53
2022-09-27T21:47:00.898Z,12.52
2022-09-27T21:51:08.230Z,12.53
2022-09-27T21:55:11.236Z,12.50
2022-09-27T21:59:16.119Z,12.48
2022-09-27T22:03:20.306Z,12.44
2022-09-27T22:07:24.559Z,12.44
2022-09-27T22:11:30.030Z,12.43
2022-09-27T22:15:35.362Z,12.45
2022-09-27T22:19:39.242Z,12.44
2022-09-27T22:23:45.595Z,12.45
2022-09-27T22:27:48.839Z,12.42
2022-09-27T22:31:51.940Z,12.39
2022-09-27T22:35:54.938Z,12.36
2022-09-27T22:39:59.206Z,12.32
2022-09-27T22:44:02.497Z,12.29
2022-09-27T22:48:05.702Z,12.29
2022-09-27T22:52:08.723Z,12.29
2022-09-27T22:56:16.174Z,12.27
2022-09-27T23:00:19.166Z,12.28
2022-09-27T23:04:22.588Z,12.24
2022-09-27T23:08:25.508Z,12.24
2022-09-27T23:12:31.056Z,12.25
2022-09-27T23:16:35.536Z,12.22
2022-09-27T23:20:39.335Z,12.22
2022-09-27T23:24:42.223Z,12.23
2022-09-27T23:28:46.614Z,12.24
2022-09-27T23:32:54.295Z,12.23
2022-09-27T23:36:57.199Z,12.20
2022-09-27T23:41:00.537Z,12.17
2022-09-27T23:45:05.401Z,12.14
2022-09-27T23:49:09.310Z,12.11
2022-09-27T23:53:12.374Z,12.09
2022-09-27T23:57:15.537Z,12.10
